Hai Yang Shi You 708 — BFDL — position and weather

sailwx.info

Track history (hours):
 
Tides and Currents Weather Stations Pressure Air Temp Water Temp Dewpoint Dewpoint Depression Visibility Wind Speed Wind Dir Waves Ship Positions

Hai Yang Shi You 708

Last reported at 2017-Feb-08 07:28 UTC. Time now 2017-Feb-21 17:17 UTC.
Position N 21°01' E 110°44'.
Warning: this ship's position is 13 days out of date.

Length 105 m; draft 7 m.

Type: Other ship. MMSI: 413303010.

Date/timePositionNaut miles runAvg speedWind from/ knotsBaromVisibWave heightAir tempDewpointWater temp
2017-Feb-08 07:28N 21°01' E 110°44'1010.6
2017-Feb-08 06:34N 21°04' E 110°34'3 2.3
2017-Feb-08 05:26N 21°05' E 110°31'0 0.0
2017-Feb-08 04:32N 21°05' E 110°31'0 0.0
2017-Feb-08 03:26N 21°05' E 110°31'0 0.0
2017-Feb-08 02:32N 21°05' E 110°31'0 0.0
2017-Feb-08 01:32N 21°05' E 110°31'0 0.0
2017-Feb-08 00:29N 21°05' E 110°31'0 0.0
2017-Feb-07 23:32N 21°05' E 110°31'0 0.0
2017-Feb-07 22:32N 21°05' E 110°31'0 0.0
2017-Feb-07 21:32N 21°05' E 110°31'0 0.0
2017-Feb-07 20:32N 21°05' E 110°31'0 0.0
2017-Feb-07 19:32N 21°05' E 110°31'0 0.0
2017-Feb-07 18:29N 21°05' E 110°31'0 0.0
2017-Feb-07 17:32N 21°05' E 110°31'0 0.0
2017-Feb-07 16:26N 21°05' E 110°31'0 0.0
2017-Feb-07 15:32N 21°05' E 110°31'0 0.0
2017-Feb-07 14:32N 21°05' E 110°31'0 0.0
2017-Feb-07 13:11N 21°05' E 110°31'0 0.0
2017-Feb-07 12:32N 21°05' E 110°31'0 0.0
2017-Feb-07 11:32N 21°05' E 110°31'0 0.0
2017-Feb-07 10:29N 21°05' E 110°31'0 0.0
2017-Feb-07 09:32N 21°05' E 110°31'0 0.0
2017-Feb-07 08:26N 21°05' E 110°31'0 0.0
2017-Feb-07 07:26N 21°05' E 110°31'0 0.0
2017-Feb-07 06:29N 21°05' E 110°31'0 0.0
2017-Feb-07 05:32N 21°05' E 110°31'0 0.0
2017-Feb-07 04:29N 21°05' E 110°31'0 0.0
2017-Feb-07 03:32N 21°05' E 110°31'0 0.0
2017-Feb-07 02:32N 21°05' E 110°31'0 0.0
2017-Feb-07 01:32N 21°05' E 110°31'0 0.0
2017-Feb-07 00:29N 21°05' E 110°31'0 0.0
2017-Feb-06 23:32N 21°05' E 110°31'0 0.0
2017-Feb-06 22:32N 21°05' E 110°31'0 0.0
2017-Feb-06 21:32N 21°05' E 110°31'0 0.0
2017-Feb-06 20:32N 21°05' E 110°31'0 0.0
2017-Feb-06 19:29N 21°05' E 110°31'0 0.0
2017-Feb-06 18:32N 21°05' E 110°31'0 0.0
2017-Feb-06 17:32N 21°05' E 110°31'0 0.0
2017-Feb-06 16:32N 21°05' E 110°31'0 0.0
2017-Feb-06 15:17N 21°05' E 110°31'0 0.1
2017-Feb-06 14:32N 21°05' E 110°31'8 7.2
2017-Feb-06 13:26N 21°03' E 110°39'26 1.4
2017-Feb-05 18:30N 20°54' E 111°06'0 0.0
2017-Feb-05 17:30N 20°54' E 111°06'17 3.3
2017-Feb-05 12:26N 21°01' E 110°49'1011.4
2017-Feb-05 11:33N 21°03' E 110°39'1110.6
2017-Feb-05 10:32N 21°05' E 110°27'7 6.8
2017-Feb-05 09:33N 21°11' E 110°25'3 3.0
2017-Feb-05 08:26N 21°15' E 110°26'0 0.0
2017-Feb-05 07:32N 21°15' E 110°26'0 0.0
2017-Feb-05 06:26N 21°15' E 110°26'0 0.0
2017-Feb-05 05:32N 21°15' E 110°26'0 0.0
2017-Feb-05 04:32N 21°15' E 110°26'0 0.0
2017-Feb-05 03:32N 21°15' E 110°26'0 0.0
2017-Feb-05 02:32N 21°15' E 110°26'0 0.0
2017-Feb-05 01:32N 21°15' E 110°26'0 0.0
2017-Feb-05 00:29N 21°15' E 110°26'0 0.0
2017-Feb-04 23:32N 21°15' E 110°26'0 0.0
2017-Feb-04 22:32N 21°15' E 110°26'0 0.0
2017-Feb-04 21:32N 21°15' E 110°26'0 0.0
2017-Feb-04 20:23N 21°15' E 110°26'0 0.0
2017-Feb-04 19:29N 21°15' E 110°26'0 0.0
2017-Feb-04 18:20N 21°15' E 110°26'0 0.0
2017-Feb-04 17:32N 21°15' E 110°26'0 0.0
2017-Feb-04 16:29N 21°15' E 110°26'0 0.0
2017-Feb-04 15:32N 21°15' E 110°26'0 0.0
2017-Feb-04 14:32N 21°15' E 110°26'0 0.0
2017-Feb-04 13:26N 21°15' E 110°26'0 0.0
2017-Feb-04 12:26N 21°15' E 110°26'0 0.0
2017-Feb-04 11:32N 21°15' E 110°26'0 0.0
2017-Feb-04 10:32N 21°15' E 110°26'0 0.0
2017-Feb-04 09:32N 21°15' E 110°26'0 0.0
2017-Feb-04 08:32N 21°15' E 110°26'0 0.0
2017-Feb-04 07:32N 21°15' E 110°26'0 0.0
2017-Feb-04 06:32N 21°15' E 110°26'0 0.0
2017-Feb-04 05:32N 21°15' E 110°26'0 0.0
2017-Feb-04 04:32N 21°15' E 110°26'0 0.0
2017-Feb-04 03:32N 21°15' E 110°26'0 0.0
2017-Feb-04 02:32N 21°15' E 110°26'0 0.0
2017-Feb-04 01:33N 21°15' E 110°26'0 0.3
2017-Feb-04 00:32N 21°15' E 110°26'0 0.0
2017-Feb-03 23:32N 21°15' E 110°26'0 0.1
2017-Feb-03 22:32N 21°15' E 110°26'0 0.0
2017-Feb-03 21:26N 21°15' E 110°26'0 0.1
2017-Feb-03 20:32N 21°15' E 110°26'0 0.0
2017-Feb-03 19:32N 21°15' E 110°26'0 0.0
2017-Feb-03 18:32N 21°15' E 110°26'0 0.0
2017-Feb-03 17:32N 21°15' E 110°26'0 0.0
2017-Feb-03 16:32N 21°15' E 110°26'0 0.0
2017-Feb-03 15:32N 21°15' E 110°26'0 0.0
2017-Feb-03 14:32N 21°15' E 110°26'0 0.1
2017-Feb-03 13:29N 21°15' E 110°26'0 0.0
2017-Feb-03 12:29N 21°15' E 110°26'0 0.1
2017-Feb-03 11:32N 21°15' E 110°26'0 0.1
2017-Feb-03 10:32N 21°15' E 110°26'0 0.0
2017-Feb-03 09:29N 21°15' E 110°26'0 0.1
2017-Feb-03 08:32N 21°15' E 110°26'0 0.0
2017-Feb-03 07:32N 21°15' E 110°26'0 0.0
2017-Feb-03 06:23N 21°15' E 110°26'0 0.0
2017-Feb-03 05:32N 21°15' E 110°26'0 0.0
2017-Feb-03 04:32N 21°15' E 110°26'0 0.0
2017-Feb-03 03:32N 21°15' E 110°26'0 0.0
2017-Feb-03 02:32N 21°15' E 110°26'0 0.0
2017-Feb-03 01:32N 21°15' E 110°26'0 0.1
2017-Feb-03 00:32N 21°15' E 110°26'0 0.0
2017-Feb-02 23:26N 21°15' E 110°26'0 0.0
2017-Feb-02 22:32N 21°15' E 110°26'0 0.0
2017-Feb-02 21:32N 21°15' E 110°26'0 0.0
2017-Feb-02 20:32N 21°15' E 110°26'0 0.1
2017-Feb-02 19:32N 21°15' E 110°26'0 0.0
2017-Feb-02 18:32N 21°15' E 110°26'0 0.0
2017-Feb-02 17:32N 21°15' E 110°26'0 0.0
2017-Feb-02 16:32N 21°15' E 110°26'0 0.1
2017-Feb-02 15:32N 21°15' E 110°26'0 0.1
2017-Feb-02 14:32N 21°15' E 110°26'0 0.0
2017-Feb-02 13:32N 21°15' E 110°26'0 0.1
2017-Feb-02 12:32N 21°15' E 110°26'0 0.0
2017-Feb-02 11:32N 21°15' E 110°26'0 0.1
2017-Feb-02 10:32N 21°15' E 110°26'0 0.1
2017-Feb-02 09:32N 21°15' E 110°26'0 0.1
2017-Feb-02 08:32N 21°15' E 110°26'0 0.1
2017-Feb-02 07:32N 21°15' E 110°26'0 0.0
2017-Feb-02 06:26N 21°15' E 110°26'0 0.0
2017-Feb-02 05:32N 21°15' E 110°26'0 0.0
2017-Feb-02 04:29N 21°15' E 110°26'0 0.0
2017-Feb-02 03:32N 21°15' E 110°26'0 0.0
2017-Feb-02 02:26N 21°15' E 110°26'0 0.0
2017-Feb-02 01:32N 21°15' E 110°26'0 0.1
2017-Feb-02 00:26N 21°15' E 110°26'0 0.0
2017-Feb-01 23:32N 21°15' E 110°26'0 0.0
2017-Feb-01 22:32N 21°15' E 110°26'0 0.0
2017-Feb-01 21:32N 21°15' E 110°26'0 0.0
2017-Feb-01 20:32N 21°15' E 110°26'0 0.0
2017-Feb-01 19:32N 21°15' E 110°26'0 0.1
2017-Feb-01 18:32N 21°15' E 110°26'0 0.1
2017-Feb-01 17:32N 21°15' E 110°26'0 0.0
2017-Feb-01 16:29N 21°15' E 110°26'0 0.0
2017-Feb-01 15:32N 21°15' E 110°26'0 0.0
2017-Feb-01 14:32N 21°15' E 110°26'0 0.0
2017-Feb-01 12:32N 21°15' E 110°26'0 0.0
2017-Feb-01 11:32N 21°15' E 110°26'0 0.0
2017-Feb-01 10:29N 21°15' E 110°26'0 0.0
2017-Feb-01 09:32N 21°15' E 110°26'0 0.0
2017-Feb-01 08:29N 21°15' E 110°26'0 0.0
2017-Feb-01 07:29N 21°15' E 110°26'0 0.0
2017-Feb-01 06:32N 21°15' E 110°26'0 0.1
2017-Feb-01 05:32N 21°15' E 110°26'0 0.1
2017-Feb-01 04:32N 21°15' E 110°26'0 0.1
2017-Feb-01 03:32N 21°15' E 110°26'0 0.0
2017-Feb-01 02:32N 21°15' E 110°26'0 0.1
2017-Feb-01 01:29N 21°15' E 110°26'0 0.0
2017-Feb-01 00:32N 21°15' E 110°26'0 0.0
2017-Jan-31 23:32N 21°15' E 110°26'0 0.0
2017-Jan-31 22:32N 21°15' E 110°26'0 0.0
2017-Jan-31 21:32N 21°15' E 110°26'0 0.0
2017-Jan-31 20:32N 21°15' E 110°26'0 0.0
2017-Jan-31 19:32N 21°15' E 110°26'0 0.0
2017-Jan-31 18:26N 21°15' E 110°26'0 0.1
2017-Jan-31 17:32N 21°15' E 110°26'0 0.0
2017-Jan-31 16:32N 21°15' E 110°26'0 0.1
2017-Jan-31 15:32N 21°15' E 110°26'0 0.0
2017-Jan-31 14:32N 21°15' E 110°26'0 0.1
2017-Jan-31 13:32N 21°15' E 110°26'0 0.0
2017-Jan-31 12:32N 21°15' E 110°26'0 0.0
2017-Jan-31 11:29N 21°15' E 110°26'0 0.0
2017-Jan-31 10:32N 21°15' E 110°26'0 0.0
2017-Jan-31 09:23N 21°15' E 110°26'0 0.1
2017-Jan-31 08:32N 21°15' E 110°26'0 0.0
2017-Jan-31 07:32N 21°15' E 110°26'0 0.1
2017-Jan-31 06:32N 21°15' E 110°26'0 0.0
2017-Jan-31 05:32N 21°15' E 110°26'0 0.0
2017-Jan-31 04:29N 21°15' E 110°26'0 0.0
2017-Jan-31 03:29N 21°15' E 110°26'0 0.0
2017-Jan-31 02:20N 21°15' E 110°26'0 0.0
2017-Jan-31 01:32N 21°15' E 110°26'0 0.0
2017-Jan-31 00:32N 21°15' E 110°26'0 0.1
2017-Jan-30 23:32N 21°15' E 110°26'0 0.0
2017-Jan-30 22:32N 21°15' E 110°26'0 0.0
2017-Jan-30 21:32N 21°15' E 110°26'0 0.0
2017-Jan-30 20:32N 21°15' E 110°26'0 0.0
2017-Jan-30 19:32N 21°15' E 110°26'0 0.0
2017-Jan-30 18:32N 21°15' E 110°26'0 0.1
2017-Jan-30 17:32N 21°15' E 110°26'0 0.1
2017-Jan-30 16:32N 21°15' E 110°26'0 0.0
2017-Jan-30 15:32N 21°15' E 110°26'0 0.0
2017-Jan-30 14:32N 21°15' E 110°26'0 0.0
2017-Jan-30 13:32N 21°15' E 110°26'0 0.0
2017-Jan-30 12:29N 21°15' E 110°26'0 0.0
2017-Jan-30 11:32N 21°15' E 110°26'0 0.1
2017-Jan-30 10:32N 21°15' E 110°26'0 0.1
2017-Jan-30 09:32N 21°15' E 110°26'0 0.0
2017-Jan-30 08:32N 21°15' E 110°26'0 0.0
2017-Jan-30 07:32N 21°15' E 110°26'0 0.0
2017-Jan-30 06:32N 21°15' E 110°26'0 0.0
2017-Jan-30 05:32N 21°15' E 110°26'0 0.0
2017-Jan-30 04:32N 21°15' E 110°26'0 0.0
2017-Jan-30 03:32N 21°15' E 110°26'0 0.0
2017-Jan-30 02:32N 21°15' E 110°26'0 0.0
2017-Jan-30 01:32N 21°15' E 110°26'0 0.0
2017-Jan-30 00:29N 21°15' E 110°26'0 0.0
2017-Jan-29 23:32N 21°15' E 110°26'0 0.0
2017-Jan-29 22:23N 21°15' E 110°26'0 0.0
2017-Jan-29 21:29N 21°15' E 110°26'0 0.0
2017-Jan-29 20:20N 21°15' E 110°26'0 0.0
2017-Jan-29 19:32N 21°15' E 110°26'0 0.0
2017-Jan-29 18:32N 21°15' E 110°26'0 0.0
2017-Jan-29 17:32N 21°15' E 110°26'0 0.1
2017-Jan-29 16:32N 21°15' E 110°26'0 0.0
2017-Jan-29 15:20N 21°15' E 110°26'0 0.0
2017-Jan-29 14:32N 21°15' E 110°26'0 0.0
2017-Jan-29 13:29N 21°15' E 110°26'0 0.1
2017-Jan-29 12:26N 21°15' E 110°26'0 0.1
2017-Jan-29 11:23N 21°15' E 110°26'0 0.0
2017-Jan-29 10:32N 21°15' E 110°26'0 0.1
2017-Jan-29 09:32N 21°15' E 110°26'0 0.1
2017-Jan-29 08:26N 21°15' E 110°26'0 0.0
2017-Jan-29 07:32N 21°15' E 110°26'  
Track history (hours):
 
Tides and Currents Weather Stations Pressure Air Temp Water Temp Dewpoint Dewpoint Depression Visibility Wind Speed Wind Dir Waves Ship Positions

Hai Yang Shi You 708

Last reported at 2017-Feb-08 07:28 UTC. Time now 2017-Feb-21 17:17 UTC.
Position N 21°01' E 110°44'.
Warning: this ship's position is 13 days out of date.

Length 105 m; draft 7 m.

Type: Other ship. MMSI: 413303010.

Date/timePositionNaut miles runAvg speedWind from/ knotsBaromVisibWave heightAir tempDewpointWater temp
2017-Feb-08 07:28N 21°01' E 110°44'1010.6
2017-Feb-08 06:34N 21°04' E 110°34'3 2.3
2017-Feb-08 05:26N 21°05' E 110°31'0 0.0
2017-Feb-08 04:32N 21°05' E 110°31'0 0.0
2017-Feb-08 03:26N 21°05' E 110°31'0 0.0
2017-Feb-08 02:32N 21°05' E 110°31'0 0.0
2017-Feb-08 01:32N 21°05' E 110°31'0 0.0
2017-Feb-08 00:29N 21°05' E 110°31'0 0.0
2017-Feb-07 23:32N 21°05' E 110°31'0 0.0
2017-Feb-07 22:32N 21°05' E 110°31'0 0.0
2017-Feb-07 21:32N 21°05' E 110°31'0 0.0
2017-Feb-07 20:32N 21°05' E 110°31'0 0.0
2017-Feb-07 19:32N 21°05' E 110°31'0 0.0
2017-Feb-07 18:29N 21°05' E 110°31'0 0.0
2017-Feb-07 17:32N 21°05' E 110°31'0 0.0
2017-Feb-07 16:26N 21°05' E 110°31'0 0.0
2017-Feb-07 15:32N 21°05' E 110°31'0 0.0
2017-Feb-07 14:32N 21°05' E 110°31'0 0.0
2017-Feb-07 13:11N 21°05' E 110°31'0 0.0
2017-Feb-07 12:32N 21°05' E 110°31'0 0.0
2017-Feb-07 11:32N 21°05' E 110°31'0 0.0
2017-Feb-07 10:29N 21°05' E 110°31'0 0.0
2017-Feb-07 09:32N 21°05' E 110°31'0 0.0
2017-Feb-07 08:26N 21°05' E 110°31'0 0.0
2017-Feb-07 07:26N 21°05' E 110°31'0 0.0
2017-Feb-07 06:29N 21°05' E 110°31'0 0.0
2017-Feb-07 05:32N 21°05' E 110°31'0 0.0
2017-Feb-07 04:29N 21°05' E 110°31'0 0.0
2017-Feb-07 03:32N 21°05' E 110°31'0 0.0
2017-Feb-07 02:32N 21°05' E 110°31'0 0.0
2017-Feb-07 01:32N 21°05' E 110°31'0 0.0
2017-Feb-07 00:29N 21°05' E 110°31'0 0.0
2017-Feb-06 23:32N 21°05' E 110°31'0 0.0
2017-Feb-06 22:32N 21°05' E 110°31'0 0.0
2017-Feb-06 21:32N 21°05' E 110°31'0 0.0
2017-Feb-06 20:32N 21°05' E 110°31'0 0.0
2017-Feb-06 19:29N 21°05' E 110°31'0 0.0
2017-Feb-06 18:32N 21°05' E 110°31'0 0.0
2017-Feb-06 17:32N 21°05' E 110°31'0 0.0
2017-Feb-06 16:32N 21°05' E 110°31'0 0.0
2017-Feb-06 15:17N 21°05' E 110°31'0 0.1
2017-Feb-06 14:32N 21°05' E 110°31'8 7.2
2017-Feb-06 13:26N 21°03' E 110°39'26 1.4
2017-Feb-05 18:30N 20°54' E 111°06'0 0.0
2017-Feb-05 17:30N 20°54' E 111°06'17 3.3
2017-Feb-05 12:26N 21°01' E 110°49'1011.4
2017-Feb-05 11:33N 21°03' E 110°39'1110.6
2017-Feb-05 10:32N 21°05' E 110°27'7 6.8
2017-Feb-05 09:33N 21°11' E 110°25'3 3.0
2017-Feb-05 08:26N 21°15' E 110°26'0 0.0
2017-Feb-05 07:32N 21°15' E 110°26'0 0.0
2017-Feb-05 06:26N 21°15' E 110°26'0 0.0
2017-Feb-05 05:32N 21°15' E 110°26'0 0.0
2017-Feb-05 04:32N 21°15' E 110°26'0 0.0
2017-Feb-05 03:32N 21°15' E 110°26'0 0.0
2017-Feb-05 02:32N 21°15' E 110°26'0 0.0
2017-Feb-05 01:32N 21°15' E 110°26'0 0.0
2017-Feb-05 00:29N 21°15' E 110°26'0 0.0
2017-Feb-04 23:32N 21°15' E 110°26'0 0.0
2017-Feb-04 22:32N 21°15' E 110°26'0 0.0
2017-Feb-04 21:32N 21°15' E 110°26'0 0.0
2017-Feb-04 20:23N 21°15' E 110°26'0 0.0
2017-Feb-04 19:29N 21°15' E 110°26'0 0.0
2017-Feb-04 18:20N 21°15' E 110°26'0 0.0
2017-Feb-04 17:32N 21°15' E 110°26'0 0.0
2017-Feb-04 16:29N 21°15' E 110°26'0 0.0
2017-Feb-04 15:32N 21°15' E 110°26'0 0.0
2017-Feb-04 14:32N 21°15' E 110°26'0 0.0
2017-Feb-04 13:26N 21°15' E 110°26'0 0.0
2017-Feb-04 12:26N 21°15' E 110°26'0 0.0
2017-Feb-04 11:32N 21°15' E 110°26'0 0.0
2017-Feb-04 10:32N 21°15' E 110°26'0 0.0
2017-Feb-04 09:32N 21°15' E 110°26'0 0.0
2017-Feb-04 08:32N 21°15' E 110°26'0 0.0
2017-Feb-04 07:32N 21°15' E 110°26'0 0.0
2017-Feb-04 06:32N 21°15' E 110°26'0 0.0
2017-Feb-04 05:32N 21°15' E 110°26'0 0.0
2017-Feb-04 04:32N 21°15' E 110°26'0 0.0
2017-Feb-04 03:32N 21°15' E 110°26'0 0.0
2017-Feb-04 02:32N 21°15' E 110°26'0 0.0
2017-Feb-04 01:33N 21°15' E 110°26'0 0.3
2017-Feb-04 00:32N 21°15' E 110°26'0 0.0
2017-Feb-03 23:32N 21°15' E 110°26'0 0.1
2017-Feb-03 22:32N 21°15' E 110°26'0 0.0
2017-Feb-03 21:26N 21°15' E 110°26'0 0.1
2017-Feb-03 20:32N 21°15' E 110°26'0 0.0
2017-Feb-03 19:32N 21°15' E 110°26'0 0.0
2017-Feb-03 18:32N 21°15' E 110°26'0 0.0
2017-Feb-03 17:32N 21°15' E 110°26'0 0.0
2017-Feb-03 16:32N 21°15' E 110°26'0 0.0
2017-Feb-03 15:32N 21°15' E 110°26'0 0.0
2017-Feb-03 14:32N 21°15' E 110°26'0 0.1
2017-Feb-03 13:29N 21°15' E 110°26'0 0.0
2017-Feb-03 12:29N 21°15' E 110°26'0 0.1
2017-Feb-03 11:32N 21°15' E 110°26'0 0.1
2017-Feb-03 10:32N 21°15' E 110°26'0 0.0
2017-Feb-03 09:29N 21°15' E 110°26'0 0.1
2017-Feb-03 08:32N 21°15' E 110°26'0 0.0
2017-Feb-03 07:32N 21°15' E 110°26'0 0.0
2017-Feb-03 06:23N 21°15' E 110°26'0 0.0
2017-Feb-03 05:32N 21°15' E 110°26'0 0.0
2017-Feb-03 04:32N 21°15' E 110°26'0 0.0
2017-Feb-03 03:32N 21°15' E 110°26'0 0.0
2017-Feb-03 02:32N 21°15' E 110°26'0 0.0
2017-Feb-03 01:32N 21°15' E 110°26'0 0.1
2017-Feb-03 00:32N 21°15' E 110°26'0 0.0
2017-Feb-02 23:26N 21°15' E 110°26'0 0.0
2017-Feb-02 22:32N 21°15' E 110°26'0 0.0
2017-Feb-02 21:32N 21°15' E 110°26'0 0.0
2017-Feb-02 20:32N 21°15' E 110°26'0 0.1
2017-Feb-02 19:32N 21°15' E 110°26'0 0.0
2017-Feb-02 18:32N 21°15' E 110°26'0 0.0
2017-Feb-02 17:32N 21°15' E 110°26'0 0.0
2017-Feb-02 16:32N 21°15' E 110°26'0 0.1
2017-Feb-02 15:32N 21°15' E 110°26'0 0.1
2017-Feb-02 14:32N 21°15' E 110°26'0 0.0
2017-Feb-02 13:32N 21°15' E 110°26'0 0.1
2017-Feb-02 12:32N 21°15' E 110°26'0 0.0
2017-Feb-02 11:32N 21°15' E 110°26'0 0.1
2017-Feb-02 10:32N 21°15' E 110°26'0 0.1
2017-Feb-02 09:32N 21°15' E 110°26'0 0.1
2017-Feb-02 08:32N 21°15' E 110°26'0 0.1
2017-Feb-02 07:32N 21°15' E 110°26'0 0.0
2017-Feb-02 06:26N 21°15' E 110°26'0 0.0
2017-Feb-02 05:32N 21°15' E 110°26'0 0.0
2017-Feb-02 04:29N 21°15' E 110°26'0 0.0
2017-Feb-02 03:32N 21°15' E 110°26'0 0.0
2017-Feb-02 02:26N 21°15' E 110°26'0 0.0
2017-Feb-02 01:32N 21°15' E 110°26'0 0.1
2017-Feb-02 00:26N 21°15' E 110°26'0 0.0
2017-Feb-01 23:32N 21°15' E 110°26'0 0.0
2017-Feb-01 22:32N 21°15' E 110°26'0 0.0
2017-Feb-01 21:32N 21°15' E 110°26'0 0.0
2017-Feb-01 20:32N 21°15' E 110°26'0 0.0
2017-Feb-01 19:32N 21°15' E 110°26'0 0.1
2017-Feb-01 18:32N 21°15' E 110°26'0 0.1
2017-Feb-01 17:32N 21°15' E 110°26'0 0.0
2017-Feb-01 16:29N 21°15' E 110°26'0 0.0
2017-Feb-01 15:32N 21°15' E 110°26'0 0.0
2017-Feb-01 14:32N 21°15' E 110°26'0 0.0
2017-Feb-01 12:32N 21°15' E 110°26'0 0.0
2017-Feb-01 11:32N 21°15' E 110°26'0 0.0
2017-Feb-01 10:29N 21°15' E 110°26'0 0.0
2017-Feb-01 09:32N 21°15' E 110°26'0 0.0
2017-Feb-01 08:29N 21°15' E 110°26'0 0.0
2017-Feb-01 07:29N 21°15' E 110°26'0 0.0
2017-Feb-01 06:32N 21°15' E 110°26'0 0.1
2017-Feb-01 05:32N 21°15' E 110°26'0 0.1
2017-Feb-01 04:32N 21°15' E 110°26'0 0.1
2017-Feb-01 03:32N 21°15' E 110°26'0 0.0
2017-Feb-01 02:32N 21°15' E 110°26'0 0.1
2017-Feb-01 01:29N 21°15' E 110°26'0 0.0
2017-Feb-01 00:32N 21°15' E 110°26'0 0.0
2017-Jan-31 23:32N 21°15' E 110°26'0 0.0
2017-Jan-31 22:32N 21°15' E 110°26'0 0.0
2017-Jan-31 21:32N 21°15' E 110°26'0 0.0
2017-Jan-31 20:32N 21°15' E 110°26'0 0.0
2017-Jan-31 19:32N 21°15' E 110°26'0 0.0
2017-Jan-31 18:26N 21°15' E 110°26'0 0.1
2017-Jan-31 17:32N 21°15' E 110°26'0 0.0
2017-Jan-31 16:32N 21°15' E 110°26'0 0.1
2017-Jan-31 15:32N 21°15' E 110°26'0 0.0
2017-Jan-31 14:32N 21°15' E 110°26'0 0.1
2017-Jan-31 13:32N 21°15' E 110°26'0 0.0
2017-Jan-31 12:32N 21°15' E 110°26'0 0.0
2017-Jan-31 11:29N 21°15' E 110°26'0 0.0
2017-Jan-31 10:32N 21°15' E 110°26'0 0.0
2017-Jan-31 09:23N 21°15' E 110°26'0 0.1
2017-Jan-31 08:32N 21°15' E 110°26'0 0.0
2017-Jan-31 07:32N 21°15' E 110°26'0 0.1
2017-Jan-31 06:32N 21°15' E 110°26'0 0.0
2017-Jan-31 05:32N 21°15' E 110°26'0 0.0
2017-Jan-31 04:29N 21°15' E 110°26'0 0.0
2017-Jan-31 03:29N 21°15' E 110°26'0 0.0
2017-Jan-31 02:20N 21°15' E 110°26'0 0.0
2017-Jan-31 01:32N 21°15' E 110°26'0 0.0
2017-Jan-31 00:32N 21°15' E 110°26'0 0.1
2017-Jan-30 23:32N 21°15' E 110°26'0 0.0
2017-Jan-30 22:32N 21°15' E 110°26'0 0.0
2017-Jan-30 21:32N 21°15' E 110°26'0 0.0
2017-Jan-30 20:32N 21°15' E 110°26'0 0.0
2017-Jan-30 19:32N 21°15' E 110°26'0 0.0
2017-Jan-30 18:32N 21°15' E 110°26'0 0.1
2017-Jan-30 17:32N 21°15' E 110°26'0 0.1
2017-Jan-30 16:32N 21°15' E 110°26'0 0.0
2017-Jan-30 15:32N 21°15' E 110°26'0 0.0
2017-Jan-30 14:32N 21°15' E 110°26'0 0.0
2017-Jan-30 13:32N 21°15' E 110°26'0 0.0
2017-Jan-30 12:29N 21°15' E 110°26'0 0.0
2017-Jan-30 11:32N 21°15' E 110°26'0 0.1
2017-Jan-30 10:32N 21°15' E 110°26'0 0.1
2017-Jan-30 09:32N 21°15' E 110°26'0 0.0
2017-Jan-30 08:32N 21°15' E 110°26'0 0.0
2017-Jan-30 07:32N 21°15' E 110°26'0 0.0
2017-Jan-30 06:32N 21°15' E 110°26'0 0.0
2017-Jan-30 05:32N 21°15' E 110°26'0 0.0
2017-Jan-30 04:32N 21°15' E 110°26'0 0.0
2017-Jan-30 03:32N 21°15' E 110°26'0 0.0
2017-Jan-30 02:32N 21°15' E 110°26'0 0.0
2017-Jan-30 01:32N 21°15' E 110°26'0 0.0
2017-Jan-30 00:29N 21°15' E 110°26'0 0.0
2017-Jan-29 23:32N 21°15' E 110°26'0 0.0
2017-Jan-29 22:23N 21°15' E 110°26'0 0.0
2017-Jan-29 21:29N 21°15' E 110°26'0 0.0
2017-Jan-29 20:20N 21°15' E 110°26'0 0.0
2017-Jan-29 19:32N 21°15' E 110°26'0 0.0
2017-Jan-29 18:32N 21°15' E 110°26'0 0.0
2017-Jan-29 17:32N 21°15' E 110°26'0 0.1
2017-Jan-29 16:32N 21°15' E 110°26'0 0.0
2017-Jan-29 15:20N 21°15' E 110°26'0 0.0
2017-Jan-29 14:32N 21°15' E 110°26'0 0.0
2017-Jan-29 13:29N 21°15' E 110°26'0 0.1
2017-Jan-29 12:26N 21°15' E 110°26'0 0.1
2017-Jan-29 11:23N 21°15' E 110°26'0 0.0
2017-Jan-29 10:32N 21°15' E 110°26'0 0.1
2017-Jan-29 09:32N 21°15' E 110°26'0 0.1
2017-Jan-29 08:26N 21°15' E 110°26'0 0.0
2017-Jan-29 07:32N 21°15' E 110°26'  

Dump ship's entire track history